Time;durP1;ratioP1;P1;durP2;ratioP2;P2;SDS_P1;SDS_P2;PMS_P1;PMS_P2;Temp;Humidity;BMP_temperature;BMP_pressure;BME280_temperature;BME280_humidity;BME280_pressure;Samples;Min_cycle;Max_cycle;Signal;HPM_P1;HPM_P2
2022/05/23 00:02:01;;;;;;;10.10;1.67;;;24.20;99.90;;;;;;5063295;28;20287;-79
2022/05/23 00:04:28;;;;;;;2.78;1.20;;;24.20;99.90;;;;;;5058517;28;20268;-79
2022/05/23 00:06:57;;;;;;;2.45;1.30;;;24.20;99.90;;;;;;5059052;28;20246;-79
2022/05/23 00:09:26;;;;;;;5.72;1.20;;;24.20;99.90;;;;;;5058917;28;20306;-79
2022/05/23 00:11:54;;;;;;;9.52;1.42;;;24.20;99.90;;;;;;5059804;28;20204;-79
2022/05/23 00:14:21;;;;;;;8.75;1.30;;;24.20;99.90;;;;;;5059904;28;20627;-79
2022/05/23 00:16:50;;;;;;;5.85;1.05;;;24.20;99.90;;;;;;5059593;28;20196;-79
2022/05/23 00:19:19;;;;;;;1.98;1.25;;;24.20;99.90;;;;;;5059792;28;20334;-79
2022/05/23 00:21:46;;;;;;;7.45;1.30;;;24.20;99.90;;;;;;5058909;28;20196;-79
2022/05/23 00:24:14;;;;;;;5.13;1.10;;;24.20;99.90;;;;;;5058323;28;20204;-79
2022/05/23 00:26:46;;;;;;;2.33;0.93;;;24.20;99.90;;;;;;5058428;28;20210;-79
2022/05/23 00:29:13;;;;;;;3.33;1.00;;;24.20;99.90;;;;;;5059625;28;20270;-79
2022/05/23 00:35:17;;;;;;;5.00;1.23;;;24.20;99.90;;;;;;5058878;28;20239;-79
2022/05/23 00:37:11;;;;;;;2.80;0.90;;;24.10;99.90;;;;;;5059707;28;20206;-79
2022/05/23 00:39:38;;;;;;;7.38;1.17;;;24.20;99.90;;;;;;5059270;28;20222;-79
2022/05/23 00:44:56;;;;;;;1.25;1.13;;;24.20;99.90;;;;;;5059188;28;20188;-79
2022/05/23 00:47:25;;;;;;;4.00;1.10;;;24.10;99.90;;;;;;5059091;28;20211;-79
2022/05/23 00:49:52;;;;;;;2.10;1.25;;;24.20;99.90;;;;;;5058608;28;20314;-79
2022/05/23 00:52:25;;;;;;;7.57;1.10;;;24.20;99.90;;;;;;5058987;28;20639;-79
2022/05/23 00:54:55;;;;;;;5.80;1.40;;;24.20;99.90;;;;;;5059640;28;20275;-79
2022/05/23 00:57:26;;;;;;;1.23;1.05;;;24.20;99.90;;;;;;5062524;28;20196;-79
2022/05/23 00:59:53;;;;;;;3.10;1.15;;;24.20;99.90;;;;;;5061493;28;20272;-79
2022/05/23 01:02:21;;;;;;;0.90;0.90;;;24.20;99.90;;;;;;5059816;28;20295;-79
2022/05/23 01:04:48;;;;;;;3.00;1.05;;;24.20;99.90;;;;;;5059368;28;20632;-79
2022/05/23 01:07:15;;;;;;;6.22;1.65;;;24.20;99.90;;;;;;5060752;28;20634;-79
2022/05/23 01:09:42;;;;;;;3.33;1.05;;;24.20;99.90;;;;;;5060708;28;20243;-79
2022/05/23 01:12:10;;;;;;;4.78;1.00;;;24.20;99.90;;;;;;5057434;28;20283;-79
2022/05/23 01:14:50;;;;;;;3.15;0.80;;;24.20;99.90;;;;;;5056739;28;20682;-79
2022/05/23 01:17:18;;;;;;;2.05;0.70;;;24.20;99.90;;;;;;5057589;28;20271;-79
2022/05/23 01:19:45;;;;;;;3.70;1.58;;;24.20;99.90;;;;;;5057793;28;20222;-79
2022/05/23 01:22:22;;;;;;;3.22;0.90;;;24.20;99.90;;;;;;5058848;28;20235;-79
2022/05/23 01:25:00;;;;;;;3.75;1.45;;;24.20;99.90;;;;;;5057461;28;20184;-79
2022/05/23 01:27:31;;;;;;;2.00;1.02;;;24.20;99.90;;;;;;5059291;28;20275;-79
2022/05/23 01:29:58;;;;;;;3.38;0.98;;;24.20;99.90;;;;;;5059042;28;20212;-79
2022/05/23 01:32:25;;;;;;;3.65;1.20;;;24.20;99.90;;;;;;5056073;28;20211;-79
2022/05/23 01:34:52;;;;;;;10.02;1.30;;;24.10;99.90;;;;;;5056016;28;20291;-78
2022/05/23 01:37:19;;;;;;;2.83;1.20;;;24.10;99.90;;;;;;5056224;28;20287;-78
2022/05/23 01:39:46;;;;;;;3.30;1.10;;;24.20;99.90;;;;;;5056232;28;20220;-79
2022/05/23 01:42:13;;;;;;;3.47;1.17;;;24.20;99.90;;;;;;5056394;28;20204;-79
2022/05/23 01:44:41;;;;;;;4.82;1.30;;;24.20;99.90;;;;;;5055647;28;20291;-79
2022/05/23 01:47:10;;;;;;;4.35;1.10;;;24.20;99.90;;;;;;5056289;28;20204;-79
2022/05/23 01:49:37;;;;;;;1.45;0.90;;;24.20;99.90;;;;;;5082663;22;20224;-84
2022/05/23 01:52:04;;;;;;;1.73;1.27;;;24.10;99.90;;;;;;5059407;28;20289;-83
2022/05/23 01:54:31;;;;;;;2.65;1.05;;;24.20;99.90;;;;;;5059959;28;20259;-83
2022/05/23 01:56:58;;;;;;;2.35;0.98;;;24.20;99.90;;;;;;5059994;28;20231;-83
2022/05/23 02:02:25;;;;;;;3.40;0.88;;;24.20;99.90;;;;;;4999303;28;20194;-84
2022/05/23 02:04:54;;;;;;;2.88;1.33;;;24.20;99.90;;;;;;4999346;28;20707;-84
2022/05/23 02:07:21;;;;;;;5.45;1.20;;;24.20;99.90;;;;;;5027085;28;20204;-83
2022/05/23 02:09:48;;;;;;;3.60;1.25;;;24.20;99.90;;;;;;5059166;28;20307;-83
2022/05/23 02:12:17;;;;;;;5.70;1.02;;;24.20;99.90;;;;;;5059206;28;20207;-83
2022/05/23 02:14:44;;;;;;;5.45;1.40;;;24.20;99.90;;;;;;5059284;28;20210;-83
2022/05/23 02:17:12;;;;;;;6.68;1.00;;;24.20;99.90;;;;;;5058242;28;20199;-83
2022/05/23 02:19:41;;;;;;;6.60;1.40;;;24.20;99.90;;;;;;5057886;28;20224;-83
2022/05/23 02:22:08;;;;;;;2.80;0.85;;;24.20;99.90;;;;;;5057751;28;20746;-83
2022/05/23 02:24:34;;;;;;;4.55;1.15;;;24.20;99.90;;;;;;5057919;28;20296;-84
2022/05/23 02:27:02;;;;;;;1.55;1.00;;;24.20;99.90;;;;;;5057184;28;20231;-83
2022/05/23 02:29:29;;;;;;;5.00;1.35;;;24.20;99.90;;;;;;5056663;28;20262;-83
2022/05/23 02:31:56;;;;;;;6.35;1.02;;;24.20;99.90;;;;;;5056326;28;20267;-83
2022/05/23 02:34:23;;;;;;;4.55;0.90;;;24.20;99.90;;;;;;5056437;28;20215;-83
2022/05/23 02:36:51;;;;;;;3.83;1.00;;;24.20;99.90;;;;;;5057391;28;20239;-83
2022/05/23 02:39:18;;;;;;;6.07;1.30;;;24.20;99.90;;;;;;5056786;28;20306;-84
2022/05/23 02:41:45;;;;;;;3.78;1.05;;;24.20;99.90;;;;;;5056130;28;20282;-84
2022/05/23 02:44:13;;;;;;;3.63;1.02;;;24.20;99.90;;;;;;5056007;28;20231;-83
2022/05/23 02:46:40;;;;;;;7.93;0.98;;;24.20;99.90;;;;;;5056217;28;20226;-83
2022/05/23 02:49:07;;;;;;;12.73;1.40;;;24.20;99.90;;;;;;5055963;28;20220;-83
2022/05/23 02:51:34;;;;;;;2.35;1.02;;;24.20;99.90;;;;;;5055810;28;20220;-83
2022/05/23 02:54:02;;;;;;;3.97;1.30;;;24.20;99.90;;;;;;5055515;28;20206;-83
2022/05/23 02:56:29;;;;;;;5.85;1.13;;;24.20;99.90;;;;;;5055388;28;20231;-83
2022/05/23 02:58:56;;;;;;;3.53;1.20;;;24.20;99.90;;;;;;5055076;28;20649;-83
2022/05/23 03:01:23;;;;;;;3.20;1.02;;;24.20;99.90;;;;;;5055016;28;20234;-83
2022/05/23 03:03:49;;;;;;;3.25;1.08;;;24.20;99.90;;;;;;5054503;28;20283;-83
2022/05/23 03:06:16;;;;;;;4.10;0.90;;;24.20;99.90;;;;;;5053936;28;20204;-82
2022/05/23 03:08:44;;;;;;;4.72;1.13;;;24.20;99.90;;;;;;5054233;28;20250;-82
2022/05/23 03:11:12;;;;;;;2.97;1.05;;;24.20;99.90;;;;;;5053654;28;20690;-82
2022/05/23 03:13:39;;;;;;;5.95;1.20;;;24.20;99.90;;;;;;5054176;28;20200;-83
2022/05/23 03:16:08;;;;;;;2.40;0.98;;;24.20;99.90;;;;;;5053734;28;20287;-83
2022/05/23 03:18:35;;;;;;;3.08;0.82;;;24.20;99.90;;;;;;5054098;28;20245;-82
2022/05/23 03:21:06;;;;;;;4.03;1.08;;;24.20;99.90;;;;;;5055065;28;20198;-83
2022/05/23 03:29:13;;;;;;;2.65;0.80;;;24.20;99.90;;;;;;5055351;28;20222;-83
2022/05/23 03:31:40;;;;;;;9.85;1.27;;;24.10;99.90;;;;;;5059255;28;20216;-83
2022/05/23 03:34:07;;;;;;;7.70;1.00;;;24.10;99.90;;;;;;5061740;28;20200;-83
2022/05/23 03:36:34;;;;;;;3.80;1.20;;;24.20;99.90;;;;;;5059594;28;20260;-83
2022/05/23 03:39:03;;;;;;;2.53;0.85;;;24.20;99.90;;;;;;5060841;28;20307;-84
2022/05/23 03:41:32;;;;;;;4.03;1.00;;;24.20;99.90;;;;;;5064334;28;20192;-84
2022/05/23 03:43:58;;;;;;;7.63;1.33;;;24.10;99.90;;;;;;5062609;28;20241;-81
2022/05/23 03:46:25;;;;;;;12.85;1.42;;;24.20;99.90;;;;;;5062085;28;20200;-81
2022/05/23 03:48:52;;;;;;;15.20;1.25;;;24.20;99.90;;;;;;5062034;28;20236;-81
2022/05/23 03:51:19;;;;;;;10.95;1.88;;;24.20;99.90;;;;;;5062987;28;20251;-81
2022/05/23 03:53:46;;;;;;;8.80;1.23;;;24.20;99.90;;;;;;5062857;28;20291;-82
2022/05/23 03:56:13;;;;;;;13.95;1.35;;;24.20;99.90;;;;;;5064485;28;20224;-82
2022/05/23 03:58:41;;;;;;;3.85;0.85;;;24.10;99.90;;;;;;5063671;28;20307;-82
2022/05/23 04:01:10;;;;;;;6.00;0.98;;;24.20;99.90;;;;;;5064107;28;20223;-82
2022/05/23 04:03:37;;;;;;;3.40;0.80;;;24.20;99.90;;;;;;5062616;28;20282;-82
2022/05/23 04:06:05;;;;;;;6.70;1.17;;;24.10;99.90;;;;;;5063189;28;20291;-81
2022/05/23 04:08:32;;;;;;;4.25;1.30;;;24.20;99.90;;;;;;5061603;28;20306;-80
2022/05/23 04:10:59;;;;;;;8.35;1.27;;;24.10;99.90;;;;;;5061274;28;20226;-81
2022/05/23 04:13:27;;;;;;;7.18;1.20;;;24.10;99.90;;;;;;5061469;28;20294;-81
2022/05/23 04:15:56;;;;;;;6.03;1.17;;;24.10;99.90;;;;;;5061133;28;20211;-81
2022/05/23 04:18:23;;;;;;;13.82;1.45;;;24.10;99.90;;;;;;5061198;28;20260;-81
2022/05/23 04:20:50;;;;;;;6.93;1.10;;;24.10;99.90;;;;;;5060990;28;20722;-82
2022/05/23 04:23:17;;;;;;;9.63;1.40;;;24.10;99.90;;;;;;5060714;28;20296;-80
2022/05/23 04:25:46;;;;;;;4.88;1.25;;;24.10;99.90;;;;;;5059758;28;20277;-79
2022/05/23 04:28:14;;;;;;;8.43;1.30;;;24.10;99.90;;;;;;5058546;28;20255;-80
2022/05/23 04:30:42;;;;;;;9.57;1.80;;;24.10;99.90;;;;;;5058652;28;20210;-81
2022/05/23 04:35:56;;;;;;;17.30;3.05;;;24.10;99.90;;;;;;5059206;28;20187;-80
2022/05/23 04:38:23;;;;;;;8.68;1.48;;;24.10;99.90;;;;;;5059157;28;20310;-80
2022/05/23 04:40:50;;;;;;;0.80;0.80;;;24.10;99.90;;;;;;5058762;28;20206;-80
2022/05/23 04:43:17;;;;;;;16.20;1.63;;;24.10;99.90;;;;;;5059549;28;20203;-81
2022/05/23 04:45:43;;;;;;;21.23;1.92;;;24.00;99.90;;;;;;5059946;28;20235;-82
2022/05/23 04:50:56;;;;;;;25.27;1.85;;;24.00;99.90;;;;;;5058860;28;20207;-81
2022/05/23 04:53:24;;;;;;;22.00;2.35;;;23.90;99.90;;;;;;5060152;28;20211;-81
2022/05/23 04:55:50;;;;;;;12.18;1.95;;;23.90;99.90;;;;;;5060275;28;20618;-81
2022/05/23 04:58:17;;;;;;;8.30;2.00;;;23.90;99.90;;;;;;5060800;28;20283;-81
2022/05/23 05:00:44;;;;;;;8.15;1.80;;;23.90;99.90;;;;;;5060169;28;20286;-81
2022/05/23 05:03:13;;;;;;;4.43;1.20;;;23.80;99.90;;;;;;5059216;28;20306;-81
2022/05/23 05:05:39;;;;;;;4.32;1.58;;;23.80;99.90;;;;;;5059875;28;20287;-81
2022/05/23 05:08:06;;;;;;;3.33;1.80;;;23.80;99.90;;;;;;5058969;28;20287;-81
2022/05/23 05:10:33;;;;;;;3.42;1.55;;;23.70;99.90;;;;;;5063980;28;20207;-82
2022/05/23 05:13:00;;;;;;;3.60;1.23;;;23.70;99.90;;;;;;5062933;28;20216;-82
2022/05/23 05:15:28;;;;;;;1.10;1.00;;;23.70;99.90;;;;;;5064151;28;20235;-82
2022/05/23 05:17:55;;;;;;;5.13;1.40;;;23.70;99.90;;;;;;5067341;28;20264;-82
2022/05/23 05:20:24;;;;;;;1.17;0.90;;;23.70;99.90;;;;;;5065614;28;20192;-83
2022/05/23 05:22:52;;;;;;;2.35;1.23;;;23.70;99.90;;;;;;5066813;28;20230;-82
2022/05/23 05:25:20;;;;;;;3.92;1.40;;;23.70;99.90;;;;;;5064772;28;20210;-83
2022/05/23 05:27:47;;;;;;;2.90;1.52;;;23.70;99.90;;;;;;5065602;28;20694;-84
2022/05/23 05:30:16;;;;;;;2.65;1.50;;;23.70;99.90;;;;;;5065386;28;20242;-84
2022/05/23 05:32:50;;;;;;;2.53;1.50;;;23.70;99.90;;;;;;5066384;28;20224;-84
2022/05/23 05:35:21;;;;;;;2.22;1.17;;;23.70;99.90;;;;;;5066923;28;20192;-83
2022/05/23 05:37:55;;;;;;;3.17;1.30;;;23.70;99.90;;;;;;5065421;28;20248;-83
2022/05/23 05:40:25;;;;;;;1.65;1.55;;;23.70;99.90;;;;;;5067335;28;20208;-83
2022/05/23 05:42:57;;;;;;;4.25;1.67;;;23.70;99.90;;;;;;5066319;28;20181;-84
2022/05/23 05:45:29;;;;;;;3.90;1.90;;;23.60;99.90;;;;;;5067946;28;20180;-83
2022/05/23 05:47:56;;;;;;;3.38;1.60;;;23.60;99.90;;;;;;5067861;28;20224;-84
2022/05/23 05:50:27;;;;;;;12.35;1.95;;;23.70;99.90;;;;;;5062415;28;20223;-85
2022/05/23 05:52:59;;;;;;;3.33;1.50;;;23.70;99.90;;;;;;5061480;28;20294;-84
2022/05/23 05:55:27;;;;;;;5.82;1.73;;;23.70;99.90;;;;;;5063216;28;20240;-85
2022/05/23 05:57:54;;;;;;;6.15;2.20;;;23.70;99.90;;;;;;5065788;28;20602;-83
2022/05/23 06:00:22;;;;;;;5.38;1.60;;;23.70;99.90;;;;;;5065835;28;20196;-84
2022/05/23 06:02:50;;;;;;;9.80;1.58;;;23.70;99.90;;;;;;5065432;28;20227;-84
2022/05/23 06:05:18;;;;;;;5.57;2.15;;;23.70;99.90;;;;;;5064778;28;20242;-83
2022/05/23 06:13:15;;;;;;;3.25;1.58;;;23.70;99.70;;;;;;5061186;28;20211;-83
2022/05/23 06:15:42;;;;;;;5.35;2.20;;;23.70;99.50;;;;;;5060667;28;20736;-82
2022/05/23 06:18:09;;;;;;;5.00;2.08;;;23.70;99.20;;;;;;5060681;28;20314;-82
2022/05/23 06:20:36;;;;;;;6.03;1.90;;;23.70;98.90;;;;;;5060654;28;20299;-83
2022/05/23 06:23:04;;;;;;;8.73;2.28;;;23.70;98.70;;;;;;5060630;28;20196;-82
2022/05/23 06:25:33;;;;;;;4.70;1.70;;;23.70;98.30;;;;;;5060930;28;20271;-82
2022/05/23 06:27:59;;;;;;;3.53;1.83;;;23.70;98.20;;;;;;5059760;28;20200;-82
2022/05/23 06:30:27;;;;;;;6.22;1.83;;;23.70;98.00;;;;;;5060599;28;20287;-82
2022/05/23 06:32:54;;;;;;;9.15;2.30;;;23.70;97.70;;;;;;5060015;28;20360;-82
2022/05/23 06:35:21;;;;;;;4.45;2.10;;;23.70;97.60;;;;;;5059819;28;20250;-82
2022/05/23 06:37:48;;;;;;;17.45;2.13;;;23.70;97.30;;;;;;5060243;28;20199;-81
2022/05/23 06:40:16;;;;;;;3.47;1.92;;;23.70;97.10;;;;;;5060314;28;20287;-82
2022/05/23 06:42:45;;;;;;;12.18;2.50;;;23.80;97.10;;;;;;5060744;28;20196;-82
2022/05/23 06:45:13;;;;;;;9.60;2.42;;;23.80;97.10;;;;;;5060444;28;20200;-82
2022/05/23 06:47:40;;;;;;;5.25;1.83;;;23.80;96.90;;;;;;5060097;28;20282;-82
2022/05/23 06:50:08;;;;;;;5.07;2.05;;;23.80;96.70;;;;;;5059763;28;20252;-82
2022/05/23 06:52:34;;;;;;;2.97;1.73;;;23.80;96.50;;;;;;5060083;28;20315;-82
2022/05/23 06:55:01;;;;;;;9.40;2.20;;;23.80;96.30;;;;;;5059961;28;20296;-82
2022/05/23 06:57:28;;;;;;;12.10;2.67;;;23.80;96.20;;;;;;5060167;28;20264;-82
2022/05/23 06:59:57;;;;;;;9.25;2.33;;;23.80;96.10;;;;;;5060387;28;20284;-82
2022/05/23 07:02:24;;;;;;;8.52;2.30;;;23.80;95.90;;;;;;5060144;28;20291;-82
2022/05/23 07:13:04;;;;;;;5.57;2.55;;;23.80;95.50;;;;;;5062105;28;20214;-82
2022/05/23 07:15:37;;;;;;;7.38;1.83;;;23.80;95.40;;;;;;5063975;28;20291;-83
2022/05/23 07:18:05;;;;;;;2.83;2.15;;;23.80;95.30;;;;;;5063509;28;20203;-82
2022/05/23 07:20:32;;;;;;;12.35;2.55;;;23.80;95.20;;;;;;5064283;28;20257;-82
2022/05/23 07:22:59;;;;;;;6.93;1.77;;;23.80;95.10;;;;;;5063779;28;20200;-82
2022/05/23 07:25:25;;;;;;;8.20;2.20;;;23.90;95.00;;;;;;5063716;28;20200;-82
2022/05/23 07:27:52;;;;;;;4.78;1.98;;;23.90;94.90;;;;;;5063665;28;20199;-82
2022/05/23 07:30:21;;;;;;;7.78;2.30;;;23.90;94.80;;;;;;5064174;28;20207;-82
2022/05/23 07:32:49;;;;;;;6.30;1.67;;;23.90;94.70;;;;;;5063851;28;20215;-82
2022/05/23 07:35:17;;;;;;;5.38;1.80;;;23.90;94.70;;;;;;5064216;28;20238;-82
2022/05/23 07:37:44;;;;;;;5.32;2.17;;;23.90;94.70;;;;;;5063881;28;20656;-82
2022/05/23 07:40:12;;;;;;;6.13;2.13;;;23.90;94.60;;;;;;5063762;28;20259;-82
2022/05/23 07:42:39;;;;;;;9.90;2.17;;;23.90;94.50;;;;;;5063859;28;20287;-82
2022/05/23 07:45:08;;;;;;;6.38;2.13;;;23.90;94.40;;;;;;5063570;28;20263;-82
2022/05/23 07:47:35;;;;;;;3.47;1.58;;;23.90;94.30;;;;;;5063867;28;20679;-82
2022/05/23 07:50:04;;;;;;;7.57;1.80;;;24.00;94.30;;;;;;5063608;28;20771;-81
2022/05/23 07:52:30;;;;;;;10.68;2.08;;;24.00;94.20;;;;;;5063609;28;20247;-82
2022/05/23 08:00:32;;;;;;;9.95;2.10;;;23.90;94.00;;;;;;5064548;28;20693;-82
2022/05/23 08:03:00;;;;;;;7.47;2.10;;;24.00;94.00;;;;;;5063348;28;20176;-82
2022/05/23 08:05:29;;;;;;;13.90;2.45;;;24.00;93.90;;;;;;5064730;28;20200;-82
2022/05/23 08:07:56;;;;;;;8.18;2.42;;;24.00;93.80;;;;;;5063385;28;20283;-81
2022/05/23 08:10:24;;;;;;;9.82;2.35;;;24.00;93.70;;;;;;5062824;28;20294;-82
2022/05/23 08:12:53;;;;;;;8.27;2.15;;;23.90;93.60;;;;;;5063361;28;20268;-82
2022/05/23 08:15:20;;;;;;;6.57;2.35;;;24.00;93.60;;;;;;5064424;28;20207;-82
2022/05/23 08:17:48;;;;;;;12.73;2.45;;;24.00;93.50;;;;;;5063388;28;20292;-82
2022/05/23 08:20:16;;;;;;;11.02;2.35;;;24.00;93.40;;;;;;5064867;28;20236;-82
2022/05/23 08:22:51;;;;;;;12.00;2.78;;;24.00;93.30;;;;;;5064726;28;20192;-82
2022/05/23 08:25:18;;;;;;;9.65;1.92;;;24.00;93.30;;;;;;5063587;28;20184;-82
2022/05/23 08:27:45;;;;;;;7.28;1.98;;;24.00;93.20;;;;;;5063615;28;20268;-82
2022/05/23 08:30:13;;;;;;;10.00;2.30;;;24.00;93.20;;;;;;5063862;28;20310;-82
2022/05/23 08:32:40;;;;;;;12.15;2.47;;;24.00;93.10;;;;;;5063581;28;20666;-82
2022/05/23 08:35:08;;;;;;;14.75;2.03;;;24.00;93.10;;;;;;5064064;28;20235;-82
2022/05/23 08:37:35;;;;;;;13.02;2.47;;;24.00;93.00;;;;;;5063510;28;20295;-82
2022/05/23 08:40:04;;;;;;;11.82;2.10;;;24.00;93.00;;;;;;5063977;28;20254;-82
2022/05/23 08:42:42;;;;;;;13.52;2.13;;;24.00;92.90;;;;;;5063657;28;20260;-82
2022/05/23 08:45:14;;;;;;;18.80;2.88;;;24.00;92.90;;;;;;5062700;28;20252;-82
2022/05/23 08:47:47;;;;;;;14.13;3.05;;;24.00;93.10;;;;;;5063459;28;20275;-82
2022/05/23 08:50:16;;;;;;;10.82;2.38;;;24.00;92.80;;;;;;5063188;28;20208;-82
2022/05/23 08:52:46;;;;;;;11.07;2.50;;;24.00;92.80;;;;;;5063034;28;20316;-82
2022/05/23 08:55:20;;;;;;;12.65;2.95;;;24.00;93.00;;;;;;5062743;28;20242;-82
2022/05/23 08:57:54;;;;;;;12.52;2.20;;;24.00;92.60;;;;;;5062842;28;20188;-82
2022/05/23 09:00:25;;;;;;;14.90;2.85;;;24.00;92.60;;;;;;5062705;28;20244;-83
2022/05/23 09:02:56;;;;;;;14.02;2.28;;;24.00;92.60;;;;;;5062820;28;20315;-83
2022/05/23 09:05:29;;;;;;;7.60;2.17;;;24.00;92.60;;;;;;5062499;28;20185;-82
2022/05/23 09:08:00;;;;;;;12.80;2.58;;;24.10;92.60;;;;;;5062687;28;20253;-81
2022/05/23 09:10:32;;;;;;;8.38;2.10;;;24.10;92.50;;;;;;5062165;28;20275;-82
2022/05/23 09:12:59;;;;;;;15.15;2.72;;;24.00;92.40;;;;;;5062351;28;20247;-82
2022/05/23 09:15:26;;;;;;;11.95;2.20;;;24.10;92.50;;;;;;5062757;28;20196;-82
2022/05/23 09:17:56;;;;;;;15.73;2.53;;;24.10;92.40;;;;;;5061980;28;20603;-81
2022/05/23 09:20:34;;;;;;;16.52;2.38;;;24.10;92.30;;;;;;5063290;28;20267;-82
2022/05/23 09:23:06;;;;;;;13.15;2.20;;;24.10;92.30;;;;;;5062314;28;20204;-82
2022/05/23 09:25:34;;;;;;;8.57;2.25;;;24.10;92.30;;;;;;5062557;28;20276;-82
2022/05/23 09:28:25;;;;;;;10.75;2.22;;;24.10;92.30;;;;;;5062445;28;20228;-81
2022/05/23 09:30:58;;;;;;;15.57;2.45;;;24.10;92.30;;;;;;5062177;28;20267;-82
2022/05/23 09:33:28;;;;;;;12.45;2.53;;;24.10;92.30;;;;;;5062392;28;20200;-82
2022/05/23 09:36:07;;;;;;;14.48;2.13;;;24.10;92.30;;;;;;5061420;28;20287;-82
2022/05/23 09:38:46;;;;;;;14.10;2.55;;;24.10;92.30;;;;;;5062603;28;20255;-82
2022/05/23 09:49:46;;;;;;;11.13;1.92;;;24.10;92.30;;;;;;5063262;28;20230;-82
2022/05/23 09:52:19;;;;;;;14.45;2.30;;;24.10;92.30;;;;;;5063316;28;20196;-82
2022/05/23 09:54:52;;;;;;;17.27;2.55;;;24.10;92.10;;;;;;5063418;28;20530;-82
2022/05/23 09:57:25;;;;;;;12.27;2.13;;;24.10;92.00;;;;;;5063543;28;20208;-82
2022/05/23 09:59:59;;;;;;;18.17;2.30;;;24.10;91.90;;;;;;5063113;28;20306;-82
2022/05/23 10:02:36;;;;;;;17.60;2.42;;;24.10;91.80;;;;;;5064292;28;20191;-82
2022/05/23 10:05:06;;;;;;;16.42;1.77;;;24.10;91.70;;;;;;5063029;28;20176;-82
2022/05/23 10:07:35;;;;;;;8.70;1.85;;;24.10;91.70;;;;;;5063428;28;20292;-82
2022/05/23 10:10:04;;;;;;;14.93;2.88;;;24.10;91.60;;;;;;5062947;28;20220;-83
2022/05/23 10:12:33;;;;;;;12.75;2.15;;;24.10;91.60;;;;;;5062547;28;20271;-82
2022/05/23 10:15:11;;;;;;;15.02;2.58;;;24.10;91.50;;;;;;5062791;28;20227;-82
2022/05/23 10:17:41;;;;;;;8.50;1.90;;;24.10;91.40;;;;;;5062403;28;20184;-82
2022/05/23 10:20:37;;;;;;;11.27;2.13;;;24.10;91.40;;;;;;5062549;28;20226;-82
2022/05/23 10:23:07;;;;;;;5.63;2.35;;;24.10;91.20;;;;;;5049362;28;20200;-82
2022/05/23 10:25:40;;;;;;;8.55;1.95;;;24.10;91.30;;;;;;5062224;28;20187;-82
2022/05/23 10:28:13;;;;;;;8.50;2.35;;;24.10;91.20;;;;;;5062128;28;20208;-82
2022/05/23 10:30:46;;;;;;;14.00;2.08;;;24.10;91.10;;;;;;5061011;28;20648;-82
2022/05/23 10:33:14;;;;;;;6.30;1.50;;;24.10;91.10;;;;;;5060840;28;20208;-81
2022/05/23 10:35:45;;;;;;;7.47;1.77;;;24.10;91.00;;;;;;5059838;28;20286;-85
2022/05/23 10:44:03;;;;;;;6.80;2.15;;;24.00;90.80;;;;;;5059732;28;20249;-87
2022/05/23 10:46:35;;;;;;;11.18;2.38;;;24.00;90.70;;;;;;5061438;28;20184;-86
2022/05/23 10:49:16;;;;;;;10.00;1.80;;;24.00;90.80;;;;;;5062596;28;20263;-85
2022/05/23 10:51:58;;;;;;;18.08;2.35;;;24.00;90.70;;;;;;5062390;28;20200;-85
2022/05/23 10:54:41;;;;;;;19.63;1.60;;;24.00;90.70;;;;;;5061440;28;20228;-87
2022/05/23 10:57:22;;;;;;;7.93;1.25;;;24.00;90.50;;;;;;5061663;28;20195;-86
2022/05/23 10:59:55;;;;;;;6.38;1.00;;;24.00;90.40;;;;;;5060664;28;20226;-85
2022/05/23 11:02:42;;;;;;;9.15;0.90;;;23.90;90.40;;;;;;5060477;28;20267;-86
2022/05/23 11:05:18;;;;;;;3.33;0.50;;;24.00;90.30;;;;;;5060631;28;20630;-87
2022/05/23 11:07:55;;;;;;;6.28;0.85;;;23.90;90.60;;;;;;5060857;28;20348;-87
2022/05/23 11:10:29;;;;;;;16.73;1.48;;;23.90;90.70;;;;;;5059504;28;20436;-87
2022/05/23 11:13:08;;;;;;;8.65;1.40;;;24.40;90.30;;;;;;5060202;28;20253;-86
2022/05/23 11:15:45;;;;;;;14.52;1.27;;;24.20;90.40;;;;;;5062211;28;20206;-86
2022/05/23 11:18:25;;;;;;;12.25;1.10;;;24.10;91.00;;;;;;5062515;28;20212;-85
2022/05/23 11:20:58;;;;;;;6.53;0.98;;;24.10;91.40;;;;;;5060133;28;20250;-85
2022/05/23 11:23:31;;;;;;;4.97;1.10;;;24.00;91.80;;;;;;5060967;28;20192;-86
2022/05/23 11:26:03;;;;;;;7.70;1.30;;;24.10;92.20;;;;;;5059529;28;20267;-85
2022/05/23 11:34:16;;;;;;;6.35;1.17;;;24.10;92.80;;;;;;5057306;28;20208;-83
2022/05/23 11:37:00;;;;;;;4.80;1.08;;;24.10;93.20;;;;;;5055837;28;20271;-82
2022/05/23 11:39:44;;;;;;;6.32;1.08;;;24.10;93.40;;;;;;5056072;28;20298;-80
2022/05/23 11:42:13;;;;;;;5.32;0.90;;;24.10;93.60;;;;;;5055925;28;20203;-85
2022/05/23 11:48:01;;;;;;;5.55;1.55;;;24.20;94.10;;;;;;5057501;28;20184;-84
2022/05/23 11:50:31;;;;;;;17.23;2.13;;;24.20;94.60;;;;;;5058089;28;20216;-84
2022/05/23 11:53:12;;;;;;;2.17;1.13;;;24.20;94.70;;;;;;5057680;28;20220;-83
2022/05/23 11:56:02;;;;;;;10.43;1.77;;;24.20;94.70;;;;;;5057993;28;20275;-83
2022/05/23 11:58:42;;;;;;;11.23;1.15;;;24.30;94.90;;;;;;5056977;28;20220;-83
2022/05/23 12:01:26;;;;;;;3.53;1.48;;;24.20;94.90;;;;;;5060091;28;20192;-83
2022/05/23 12:04:24;;;;;;;5.68;1.10;;;24.20;95.10;;;;;;5061092;28;20254;-81
2022/05/23 12:06:51;;;;;;;4.68;1.05;;;24.20;95.30;;;;;;5058706;28;20291;-83
2022/05/23 12:09:31;;;;;;;4.38;1.10;;;24.20;95.70;;;;;;5058044;28;20283;-82
2022/05/23 12:12:47;;;;;;;6.57;1.77;;;24.30;95.80;;;;;;5057475;28;20224;-82
2022/05/23 12:15:49;;;;;;;4.57;1.08;;;24.30;95.90;;;;;;5056799;28;20234;-82
2022/05/23 12:18:32;;;;;;;6.63;1.25;;;24.30;96.30;;;;;;5058162;28;20285;-82
2022/05/23 12:21:02;;;;;;;1.13;0.73;;;24.30;96.60;;;;;;5057726;28;20191;-82
2022/05/23 12:23:36;;;;;;;13.40;1.10;;;24.20;96.80;;;;;;5057686;28;20634;-82
2022/05/23 12:26:25;;;;;;;7.15;0.88;;;24.30;96.90;;;;;;5057985;28;20192;-82
2022/05/23 12:28:54;;;;;;;9.80;1.70;;;24.30;96.90;;;;;;5057562;28;20221;-82
2022/05/23 12:31:21;;;;;;;1.20;0.60;;;24.30;97.70;;;;;;5057618;28;20649;-82
2022/05/23 12:34:10;;;;;;;2.03;1.00;;;24.30;97.40;;;;;;5057273;28;20307;-82
2022/05/23 12:36:41;;;;;;;4.57;0.80;;;24.30;97.40;;;;;;5057605;28;20270;-82
2022/05/23 12:39:50;;;;;;;16.85;1.17;;;24.30;97.80;;;;;;5057515;28;20587;-82
2022/05/23 12:42:35;;;;;;;1.65;0.90;;;24.30;97.80;;;;;;5057478;28;20283;-82
2022/05/23 12:45:35;;;;;;;9.38;1.02;;;24.30;98.10;;;;;;5057759;28;20239;-83
2022/05/23 12:48:31;;;;;;;11.73;1.40;;;24.40;98.10;;;;;;5058142;28;20234;-86
2022/05/23 12:51:18;;;;;;;5.97;0.80;;;24.40;98.40;;;;;;5058972;28;20524;-85
2022/05/23 12:54:03;;;;;;;8.77;1.65;;;24.40;98.90;;;;;;5057745;28;20223;-87
2022/05/23 12:56:47;;;;;;;10.93;1.25;;;24.40;98.80;;;;;;5055808;28;20556;-89
2022/05/23 12:59:35;;;;;;;10.27;1.08;;;24.40;98.80;;;;;;5055576;28;20257;-88
2022/05/23 13:02:06;;;;;;;6.03;0.85;;;24.40;99.00;;;;;;5055541;28;20195;-87
2022/05/23 13:04:39;;;;;;;4.53;1.10;;;24.40;99.20;;;;;;5055381;28;20542;-88
2022/05/23 13:07:11;;;;;;;1.08;0.63;;;24.40;99.30;;;;;;5055382;28;20203;-87
2022/05/23 13:09:45;;;;;;;9.40;1.10;;;24.40;99.40;;;;;;5055397;28;20624;-87
2022/05/23 13:12:18;;;;;;;4.45;1.05;;;24.40;99.30;;;;;;5055438;28;20188;-87
2022/05/23 13:14:50;;;;;;;2.45;0.70;;;24.40;99.50;;;;;;5055133;28;20742;-87
2022/05/23 13:17:46;;;;;;;5.45;0.68;;;24.40;99.60;;;;;;5055365;28;20200;-88
2022/05/23 13:23:04;;;;;;;4.57;0.80;;;24.40;99.80;;;;;;5055426;28;20250;-87
2022/05/23 13:25:33;;;;;;;2.35;0.90;;;24.40;99.80;;;;;;5056105;28;20287;-87
2022/05/23 13:28:00;;;;;;;4.28;0.85;;;24.40;99.90;;;;;;5055526;28;20283;-90
2022/05/23 13:30:32;;;;;;;3.33;0.80;;;24.40;99.80;;;;;;5059624;28;20227;-85
2022/05/23 13:33:11;;;;;;;8.80;1.08;;;24.40;99.90;;;;;;5063395;28;20595;-85
2022/05/23 13:35:40;;;;;;;6.03;1.10;;;24.40;99.70;;;;;;5064196;28;20627;-86
2022/05/23 13:38:14;;;;;;;6.53;1.30;;;24.40;99.80;;;;;;5064488;28;20192;-87
2022/05/23 13:40:46;;;;;;;8.18;1.40;;;24.40;99.90;;;;;;5059574;28;20227;-87
2022/05/23 13:43:18;;;;;;;4.57;1.15;;;24.40;99.90;;;;;;5060183;28;20181;-87
2022/05/23 13:45:47;;;;;;;4.28;1.30;;;24.40;99.90;;;;;;5059934;28;20636;-87
2022/05/23 13:48:17;;;;;;;4.68;1.40;;;24.40;99.90;;;;;;5059840;28;20224;-86
2022/05/23 13:50:49;;;;;;;5.68;1.10;;;24.40;99.90;;;;;;5062962;28;20204;-87
2022/05/23 13:53:21;;;;;;;6.22;1.48;;;24.40;99.90;;;;;;5065854;28;20204;-88
2022/05/23 13:55:51;;;;;;;7.97;1.15;;;24.50;99.90;;;;;;5068109;28;20219;-88
2022/05/23 13:58:22;;;;;;;5.10;1.42;;;24.50;99.90;;;;;;5065707;28;20208;-88
2022/05/23 14:00:54;;;;;;;3.33;1.10;;;24.50;99.90;;;;;;5059971;28;20191;-87
2022/05/23 14:03:28;;;;;;;4.35;1.27;;;24.50;99.90;;;;;;5058964;28;20629;-87
2022/05/23 14:05:57;;;;;;;2.50;1.15;;;24.50;99.90;;;;;;5060884;28;20251;-87
2022/05/23 14:08:35;;;;;;;5.78;1.23;;;24.50;99.90;;;;;;5067516;28;20235;-87
2022/05/23 14:11:18;;;;;;;4.97;1.38;;;24.50;99.90;;;;;;5069260;28;20204;-84